Time;durP1;ratioP1;P1;durP2;ratioP2;P2;SDS_P1;SDS_P2;PMS_P1;PMS_P2;Temp;Humidity;BMP_temperature;BMP_pressure;BME280_temperature;BME280_humidity;BME280_pressure;Samples;Min_cycle;Max_cycle;Signal;HPM_P1;HPM_P2
2021/04/27 00:00:47;;;;;;;9.20;5.50;;;4.20;99.90;;;;;;5032942;28;20237;-70
2021/04/27 00:03:14;;;;;;;9.80;5.90;;;4.20;99.90;;;;;;5033288;28;20210;-70
2021/04/27 00:05:42;;;;;;;10.60;5.90;;;4.20;99.90;;;;;;5033305;28;20673;-69
2021/04/27 00:08:08;;;;;;;12.00;5.97;;;4.20;99.90;;;;;;5033100;28;20207;-71
2021/04/27 00:10:35;;;;;;;9.80;5.70;;;4.20;99.90;;;;;;5033770;28;20205;-72
2021/04/27 00:13:01;;;;;;;11.97;6.10;;;4.30;99.90;;;;;;5032671;28;20689;-70
2021/04/27 00:15:29;;;;;;;8.30;5.63;;;4.30;99.90;;;;;;5034261;28;20253;-70
2021/04/27 00:17:56;;;;;;;11.20;6.23;;;4.20;99.90;;;;;;5033701;28;20210;-70
2021/04/27 00:20:24;;;;;;;11.03;5.00;;;4.20;99.90;;;;;;5033337;28;20222;-71
2021/04/27 00:22:52;;;;;;;9.90;6.03;;;4.20;99.90;;;;;;5032937;28;20206;-70
2021/04/27 00:25:18;;;;;;;8.30;6.00;;;4.20;99.90;;;;;;5033421;28;20338;-70
2021/04/27 00:27:48;;;;;;;10.43;5.87;;;4.10;99.90;;;;;;5033292;28;20233;-69
2021/04/27 00:30:15;;;;;;;10.73;6.50;;;4.00;99.90;;;;;;5031048;28;20289;-71
2021/04/27 00:32:42;;;;;;;8.93;5.97;;;4.00;99.90;;;;;;5031167;28;20634;-70
2021/04/27 00:35:10;;;;;;;12.17;5.63;;;4.00;99.90;;;;;;5030744;28;20297;-71
2021/04/27 00:37:37;;;;;;;11.40;6.23;;;4.00;99.90;;;;;;5033570;28;20207;-70
2021/04/27 00:40:04;;;;;;;12.50;6.27;;;3.90;99.90;;;;;;5033597;28;20206;-70
2021/04/27 00:42:32;;;;;;;11.70;6.53;;;3.90;99.90;;;;;;5033648;28;20234;-69
2021/04/27 00:45:00;;;;;;;11.80;6.50;;;4.00;99.90;;;;;;5031348;28;20230;-70
2021/04/27 00:47:26;;;;;;;9.40;6.20;;;4.00;99.90;;;;;;5030303;28;20213;-69
2021/04/27 00:49:54;;;;;;;12.17;6.30;;;4.00;99.90;;;;;;5027204;28;20202;-69
2021/04/27 00:52:21;;;;;;;10.63;6.20;;;4.00;99.90;;;;;;5033047;28;20203;-69
2021/04/27 00:54:47;;;;;;;11.70;6.50;;;4.10;99.90;;;;;;5030528;28;20655;-69
2021/04/27 00:57:15;;;;;;;9.90;6.30;;;4.10;99.90;;;;;;5033232;28;20249;-70
2021/04/27 00:59:42;;;;;;;13.83;7.77;;;4.10;99.90;;;;;;5030373;28;20556;-69
2021/04/27 01:02:08;;;;;;;9.80;6.60;;;4.10;99.90;;;;;;5034263;28;20307;-68
2021/04/27 01:04:35;;;;;;;12.20;7.50;;;4.10;99.90;;;;;;5032511;28;20229;-69
2021/04/27 01:07:01;;;;;;;13.40;7.67;;;4.10;99.90;;;;;;5031925;28;20206;-69
2021/04/27 01:09:32;;;;;;;12.53;8.07;;;4.00;99.90;;;;;;5029430;28;20215;-68
2021/04/27 01:12:04;;;;;;;13.80;8.57;;;4.00;99.90;;;;;;5033477;28;20644;-69
2021/04/27 01:14:34;;;;;;;15.37;8.33;;;4.00;99.90;;;;;;5031380;28;20245;-68
2021/04/27 01:17:04;;;;;;;13.20;8.20;;;4.00;99.90;;;;;;5032580;28;20593;-68
2021/04/27 01:19:39;;;;;;;12.10;8.63;;;3.90;99.90;;;;;;5029291;28;20297;-69
2021/04/27 01:22:09;;;;;;;14.97;8.00;;;3.80;99.90;;;;;;5032196;28;20640;-69
2021/04/27 01:24:44;;;;;;;15.33;8.87;;;3.70;99.90;;;;;;5032440;28;20236;-68
2021/04/27 01:27:12;;;;;;;14.93;8.47;;;3.60;99.90;;;;;;5029691;28;20255;-69
2021/04/27 01:29:39;;;;;;;15.90;8.80;;;3.50;99.90;;;;;;5031585;28;20206;-69
2021/04/27 01:32:07;;;;;;;15.57;8.80;;;3.50;99.90;;;;;;5032341;28;20573;-70
2021/04/27 01:34:38;;;;;;;16.00;8.70;;;3.40;99.90;;;;;;5027189;28;20306;-69
2021/04/27 01:37:06;;;;;;;15.83;8.60;;;3.40;99.90;;;;;;5032631;28;20208;-69
2021/04/27 01:39:33;;;;;;;11.83;7.87;;;3.40;99.90;;;;;;5032211;28;20216;-69
2021/04/27 01:42:01;;;;;;;13.70;8.73;;;3.40;99.90;;;;;;5032970;28;20226;-69
2021/04/27 01:44:29;;;;;;;14.20;8.40;;;3.40;99.90;;;;;;5032810;28;20316;-68
2021/04/27 01:46:57;;;;;;;13.83;9.07;;;3.40;99.90;;;;;;5029308;28;20675;-69
2021/04/27 01:49:25;;;;;;;14.60;8.47;;;3.40;99.90;;;;;;5027184;28;20286;-68
2021/04/27 01:51:52;;;;;;;13.47;8.80;;;3.40;99.90;;;;;;5031762;28;20301;-69
2021/04/27 01:54:21;;;;;;;14.10;8.87;;;3.40;99.90;;;;;;5032488;28;20203;-69
2021/04/27 01:56:48;;;;;;;17.70;8.97;;;3.40;99.90;;;;;;5033216;28;20210;-68
2021/04/27 01:59:14;;;;;;;15.10;9.53;;;3.40;99.90;;;;;;5033002;28;20211;-70
2021/04/27 02:01:42;;;;;;;15.30;8.33;;;3.40;99.90;;;;;;5035371;28;20305;-70
2021/04/27 02:04:08;;;;;;;14.30;8.43;;;3.40;99.90;;;;;;5033018;28;20208;-68
2021/04/27 02:06:34;;;;;;;17.20;8.97;;;3.30;99.90;;;;;;5035701;28;20301;-67
2021/04/27 02:09:04;;;;;;;16.03;8.90;;;3.20;99.90;;;;;;5035439;28;20228;-68
2021/04/27 02:11:34;;;;;;;15.33;8.70;;;3.20;99.90;;;;;;5035023;28;20276;-68
2021/04/27 02:14:01;;;;;;;16.03;8.47;;;3.20;99.90;;;;;;5034748;28;20699;-68
2021/04/27 02:16:32;;;;;;;16.43;8.77;;;3.20;99.90;;;;;;5034700;28;20274;-68
2021/04/27 02:19:02;;;;;;;13.47;8.53;;;3.20;99.90;;;;;;5032558;28;20218;-68
2021/04/27 02:21:29;;;;;;;15.93;9.13;;;3.20;99.90;;;;;;5035289;28;20294;-68
2021/04/27 02:23:56;;;;;;;13.93;8.93;;;3.20;99.90;;;;;;5034837;28;20209;-68
2021/04/27 02:26:23;;;;;;;14.93;9.93;;;3.20;99.90;;;;;;5035357;28;20297;-69
2021/04/27 02:28:50;;;;;;;14.50;9.27;;;3.20;99.90;;;;;;5035859;28;20199;-68
2021/04/27 02:31:17;;;;;;;15.10;9.10;;;3.20;99.90;;;;;;5034650;28;20234;-69
2021/04/27 02:33:44;;;;;;;16.53;9.70;;;3.20;99.90;;;;;;5034391;28;20264;-68
2021/04/27 02:36:11;;;;;;;14.57;9.00;;;3.20;99.90;;;;;;5034140;28;20210;-68
2021/04/27 02:38:38;;;;;;;13.63;8.67;;;3.10;99.90;;;;;;5034556;28;20284;-68
2021/04/27 02:41:05;;;;;;;14.63;8.43;;;3.10;99.90;;;;;;5035271;28;20705;-68
2021/04/27 02:43:31;;;;;;;11.77;7.93;;;3.10;99.90;;;;;;5033633;28;20217;-69
2021/04/27 02:45:58;;;;;;;16.67;8.77;;;3.10;99.90;;;;;;5035061;28;20205;-69
2021/04/27 02:48:26;;;;;;;16.37;9.27;;;3.10;99.90;;;;;;5034904;28;20237;-68
2021/04/27 02:50:55;;;;;;;19.50;8.97;;;3.10;99.90;;;;;;5034401;28;20329;-69
2021/04/27 02:53:23;;;;;;;16.27;8.87;;;3.10;99.90;;;;;;5034806;28;20678;-67
2021/04/27 02:55:49;;;;;;;13.27;9.20;;;3.00;99.90;;;;;;5034049;28;20283;-68
2021/04/27 02:58:17;;;;;;;17.20;9.60;;;2.90;99.90;;;;;;5033773;28;20203;-69
2021/04/27 03:00:44;;;;;;;19.90;9.20;;;2.90;99.90;;;;;;5032256;28;20230;-68
2021/04/27 03:03:10;;;;;;;14.73;8.97;;;2.90;99.90;;;;;;5033939;28;20206;-68
2021/04/27 03:05:37;;;;;;;14.67;8.70;;;2.90;99.90;;;;;;5034528;28;20207;-70
2021/04/27 03:08:05;;;;;;;15.50;8.97;;;2.90;99.90;;;;;;5031362;28;20243;-70
2021/04/27 03:10:33;;;;;;;15.33;8.90;;;2.90;99.90;;;;;;5034718;28;20207;-69
2021/04/27 03:13:00;;;;;;;16.30;9.67;;;2.90;99.90;;;;;;5031783;28;20215;-68
2021/04/27 03:15:27;;;;;;;16.27;9.20;;;2.90;99.90;;;;;;5033453;28;20721;-69
2021/04/27 03:17:53;;;;;;;17.00;8.87;;;3.00;99.90;;;;;;5031637;28;20205;-68
2021/04/27 03:20:19;;;;;;;15.47;9.10;;;2.90;99.90;;;;;;5033723;28;20216;-68
2021/04/27 03:22:46;;;;;;;16.27;9.50;;;2.90;99.90;;;;;;5031377;28;20206;-68
2021/04/27 03:25:14;;;;;;;14.27;8.73;;;2.90;99.90;;;;;;5031331;28;20257;-68
2021/04/27 03:27:41;;;;;;;18.23;10.30;;;2.90;99.90;;;;;;5032947;28;20211;-69
2021/04/27 03:30:11;;;;;;;16.50;9.97;;;2.90;99.90;;;;;;5033307;28;20238;-68
2021/04/27 03:32:37;;;;;;;19.47;10.23;;;3.00;99.90;;;;;;5031956;28;20203;-68
2021/04/27 03:35:05;;;;;;;16.33;9.23;;;3.00;99.90;;;;;;5033711;28;20206;-69
2021/04/27 03:37:31;;;;;;;16.57;9.17;;;3.10;99.90;;;;;;5033876;28;20210;-69
2021/04/27 03:39:58;;;;;;;18.97;9.50;;;3.20;99.90;;;;;;5033889;28;20203;-68
2021/04/27 03:42:24;;;;;;;16.83;8.97;;;3.20;99.90;;;;;;5033866;28;20234;-69
2021/04/27 03:44:52;;;;;;;18.30;9.73;;;3.30;99.90;;;;;;5032138;28;20279;-68
2021/04/27 03:47:18;;;;;;;17.50;9.80;;;3.40;99.90;;;;;;5032316;28;20207;-69
2021/04/27 03:49:45;;;;;;;20.23;8.97;;;3.50;99.90;;;;;;5030073;28;20264;-68
2021/04/27 03:52:11;;;;;;;14.13;8.90;;;3.60;99.90;;;;;;5033362;28;20198;-69
2021/04/27 03:54:38;;;;;;;15.97;9.10;;;3.60;99.90;;;;;;5030901;28;20203;-68
2021/04/27 03:57:05;;;;;;;16.93;9.17;;;3.70;99.90;;;;;;5034040;28;20301;-68
2021/04/27 03:59:31;;;;;;;14.27;9.20;;;3.70;99.90;;;;;;5032985;28;20667;-69
2021/04/27 04:01:59;;;;;;;20.43;9.60;;;3.80;99.90;;;;;;5030564;28;20226;-69
2021/04/27 04:04:25;;;;;;;16.83;9.43;;;3.80;99.90;;;;;;5031762;28;20207;-68
2021/04/27 04:06:52;;;;;;;14.13;9.07;;;3.90;99.90;;;;;;5033229;28;20213;-68
2021/04/27 04:09:18;;;;;;;15.20;9.40;;;4.00;99.90;;;;;;5028511;28;20199;-68
2021/04/27 04:11:45;;;;;;;13.87;8.90;;;4.00;99.90;;;;;;5033700;28;20565;-71
2021/04/27 04:14:12;;;;;;;14.97;8.97;;;4.10;99.90;;;;;;5033502;28;20702;-68
2021/04/27 04:16:38;;;;;;;17.77;9.47;;;4.20;99.90;;;;;;5033080;28;20562;-70
2021/04/27 04:19:06;;;;;;;18.33;8.83;;;4.20;99.90;;;;;;5033157;28;20234;-70
2021/04/27 04:21:32;;;;;;;13.97;9.23;;;4.30;99.90;;;;;;5032684;28;20859;-68
2021/04/27 04:23:59;;;;;;;16.73;8.63;;;4.40;99.90;;;;;;5028650;28;20207;-68
2021/04/27 04:26:26;;;;;;;16.03;8.97;;;4.40;99.90;;;;;;5031504;28;20256;-68
2021/04/27 04:28:52;;;;;;;15.27;8.83;;;4.50;99.90;;;;;;5032517;28;20202;-68
2021/04/27 04:31:19;;;;;;;14.20;8.97;;;4.50;99.90;;;;;;5031489;28;20233;-69
2021/04/27 04:33:45;;;;;;;16.07;9.93;;;4.50;99.90;;;;;;5029605;28;20345;-68
2021/04/27 04:36:13;;;;;;;18.53;9.53;;;4.50;99.90;;;;;;5032076;28;20266;-68
2021/04/27 04:38:39;;;;;;;17.53;9.13;;;4.60;99.90;;;;;;5032362;28;20222;-68
2021/04/27 04:41:08;;;;;;;14.20;8.47;;;4.80;99.90;;;;;;5029523;28;20226;-68
2021/04/27 04:43:35;;;;;;;12.73;8.97;;;4.80;99.90;;;;;;5031397;28;20321;-69
2021/04/27 04:46:01;;;;;;;14.53;8.70;;;4.90;99.90;;;;;;5031964;28;20264;-69
2021/04/27 04:48:28;;;;;;;14.77;8.90;;;5.00;99.90;;;;;;5032048;28;20225;-68
2021/04/27 04:50:54;;;;;;;18.40;8.77;;;5.00;99.90;;;;;;5030100;28;20198;-69
2021/04/27 04:53:21;;;;;;;15.70;8.87;;;5.10;99.90;;;;;;5032439;28;20257;-69
2021/04/27 04:55:48;;;;;;;13.13;8.43;;;5.20;99.90;;;;;;5032215;28;20658;-68
2021/04/27 04:58:14;;;;;;;14.37;8.80;;;5.30;99.90;;;;;;5030289;28;20207;-69
2021/04/27 05:00:41;;;;;;;14.37;8.00;;;5.40;99.90;;;;;;5032048;28;20242;-69
2021/04/27 05:03:07;;;;;;;16.53;8.20;;;5.40;99.90;;;;;;5031982;28;20349;-69
2021/04/27 05:05:34;;;;;;;10.70;7.80;;;5.50;99.90;;;;;;5030028;28;20289;-70
2021/04/27 05:08:08;;;;;;;14.17;8.57;;;5.40;99.90;;;;;;5027809;28;20235;-70
2021/04/27 05:10:36;;;;;;;11.57;8.30;;;5.50;99.90;;;;;;5032034;28;20721;-68
2021/04/27 05:13:02;;;;;;;15.83;8.63;;;5.50;99.90;;;;;;5032038;28;20199;-68
2021/04/27 05:15:28;;;;;;;11.67;7.50;;;5.50;99.90;;;;;;5028774;28;20207;-69
2021/04/27 05:17:55;;;;;;;11.17;7.00;;;5.50;99.90;;;;;;5032448;28;20206;-69
2021/04/27 05:20:23;;;;;;;10.57;6.97;;;5.50;99.90;;;;;;5031687;28;20202;-69
2021/04/27 05:22:50;;;;;;;11.83;6.73;;;5.50;99.90;;;;;;5032217;28;20217;-68
2021/04/27 05:25:17;;;;;;;10.93;6.80;;;5.40;99.90;;;;;;5032026;28;20233;-68
2021/04/27 05:27:44;;;;;;;14.60;7.27;;;5.40;99.90;;;;;;5032667;28;20214;-70
2021/04/27 05:30:11;;;;;;;10.20;6.30;;;5.50;99.90;;;;;;5031656;28;20285;-68
2021/04/27 05:32:38;;;;;;;11.13;5.83;;;5.50;99.90;;;;;;5032793;28;20286;-68
2021/04/27 05:35:06;;;;;;;7.70;4.93;;;5.50;99.90;;;;;;5035026;28;20210;-68
2021/04/27 05:37:33;;;;;;;10.17;4.90;;;5.50;99.90;;;;;;5034806;28;20221;-68
2021/04/27 05:40:00;;;;;;;7.07;4.33;;;5.60;99.90;;;;;;5034053;28;20213;-69
2021/04/27 05:42:26;;;;;;;9.87;4.27;;;5.70;99.90;;;;;;5035108;28;20222;-68
2021/04/27 05:44:54;;;;;;;8.23;4.60;;;5.70;99.70;;;;;;5034307;28;20295;-69
2021/04/27 05:47:20;;;;;;;9.47;4.00;;;5.80;98.70;;;;;;5034795;28;20303;-69
2021/04/27 05:49:47;;;;;;;11.60;4.30;;;5.90;97.60;;;;;;5035168;28;20218;-70
2021/04/27 05:52:13;;;;;;;13.00;4.47;;;6.00;97.00;;;;;;5035192;28;20294;-68
2021/04/27 05:54:39;;;;;;;9.83;4.87;;;6.10;96.40;;;;;;5033658;28;20214;-68
2021/04/27 05:57:06;;;;;;;10.70;5.37;;;6.20;95.90;;;;;;5035162;28;20377;-68
2021/04/27 05:59:32;;;;;;;6.90;4.00;;;6.30;94.90;;;;;;5035791;28;20652;-69
2021/04/27 06:02:00;;;;;;;5.87;4.00;;;6.30;93.80;;;;;;5030364;28;20320;-68
2021/04/27 06:04:26;;;;;;;5.30;3.43;;;6.30;93.10;;;;;;5033772;28;20229;-69
2021/04/27 06:06:53;;;;;;;5.90;3.37;;;6.40;91.80;;;;;;5033270;28;20209;-70
2021/04/27 06:09:19;;;;;;;7.68;3.60;;;6.40;90.30;;;;;;5034182;28;20843;-68
2021/04/27 06:11:46;;;;;;;6.60;3.77;;;6.40;86.70;;;;;;5032600;28;20238;-68
2021/04/27 06:14:12;;;;;;;9.53;4.00;;;6.40;84.20;;;;;;5031980;28;20281;-69
2021/04/27 06:16:39;;;;;;;6.30;3.80;;;6.40;83.20;;;;;;5033929;28;20207;-69
2021/04/27 06:19:06;;;;;;;5.27;3.20;;;6.50;82.50;;;;;;5034013;28;20970;-69
2021/04/27 06:21:33;;;;;;;6.93;2.83;;;6.60;80.60;;;;;;5032944;28;20223;-70
2021/04/27 06:24:00;;;;;;;5.23;2.93;;;6.60;78.20;;;;;;5032606;28;20320;-69
2021/04/27 06:26:27;;;;;;;3.53;1.93;;;6.70;77.10;;;;;;5034585;28;20298;-70
2021/04/27 06:28:53;;;;;;;3.67;2.30;;;6.70;73.50;;;;;;5033889;28;20305;-69
2021/04/27 06:31:20;;;;;;;6.17;2.20;;;6.80;71.00;;;;;;5030159;28;20234;-68
2021/04/27 06:33:47;;;;;;;3.73;1.60;;;6.70;70.00;;;;;;5033360;28;20274;-68
2021/04/27 06:36:15;;;;;;;4.70;2.43;;;6.80;69.00;;;;;;5033106;28;20639;-68
2021/04/27 06:38:41;;;;;;;2.60;1.77;;;6.80;68.10;;;;;;5031151;28;20298;-70
2021/04/27 06:41:08;;;;;;;2.70;1.53;;;6.90;67.50;;;;;;5031390;28;20757;-68
2021/04/27 06:43:35;;;;;;;2.53;1.33;;;7.00;65.90;;;;;;5031319;28;20242;-68
2021/04/27 06:46:02;;;;;;;4.50;1.53;;;7.00;64.40;;;;;;5033324;28;20202;-68
2021/04/27 06:48:28;;;;;;;3.53;1.80;;;7.10;63.30;;;;;;5033600;28;20214;-69
2021/04/27 06:50:55;;;;;;;3.70;2.40;;;7.10;61.40;;;;;;5031417;28;20680;-68
2021/04/27 06:53:22;;;;;;;4.43;3.00;;;7.10;61.30;;;;;;5033312;28;20273;-69
2021/04/27 06:55:49;;;;;;;5.70;2.47;;;7.20;61.70;;;;;;5033822;28;20234;-70
2021/04/27 06:58:16;;;;;;;4.40;2.13;;;7.40;61.40;;;;;;5033799;28;20302;-68
2021/04/27 07:00:43;;;;;;;5.97;2.00;;;7.50;60.20;;;;;;5033270;28;20207;-68
2021/04/27 07:03:10;;;;;;;5.67;2.20;;;7.50;58.80;;;;;;5034227;28;20211;-66
2021/04/27 07:05:36;;;;;;;2.13;1.80;;;7.60;58.10;;;;;;5033899;28;20666;-69
2021/04/27 07:08:04;;;;;;;2.90;1.60;;;7.70;57.00;;;;;;5033907;28;20306;-71
2021/04/27 07:10:31;;;;;;;3.80;1.63;;;7.80;56.00;;;;;;5033749;28;20664;-70
2021/04/27 07:12:58;;;;;;;3.43;2.00;;;7.90;55.30;;;;;;5029933;28;20207;-69
2021/04/27 07:15:24;;;;;;;3.40;1.80;;;8.40;55.20;;;;;;5032288;28;20230;-69
2021/04/27 07:17:51;;;;;;;4.13;1.93;;;8.10;54.50;;;;;;5033603;28;20603;-67
2021/04/27 07:20:17;;;;;;;2.90;1.70;;;8.30;54.50;;;;;;5034591;28;20213;-68
2021/04/27 07:22:44;;;;;;;2.57;1.40;;;8.40;53.80;;;;;;5027596;28;20230;-69
2021/04/27 07:25:12;;;;;;;2.50;1.60;;;8.50;53.10;;;;;;5033395;28;20293;-69
2021/04/27 07:27:39;;;;;;;1.60;1.40;;;8.70;52.40;;;;;;5031704;28;20327;-69
2021/04/27 07:30:08;;;;;;;2.30;1.40;;;8.80;51.40;;;;;;5030304;28;20682;-70
2021/04/27 07:32:35;;;;;;;3.00;1.77;;;9.00;51.00;;;;;;5026349;28;20704;-70
2021/04/27 07:35:02;;;;;;;2.60;1.70;;;9.00;51.00;;;;;;5033318;28;20676;-71
2021/04/27 07:37:29;;;;;;;4.43;2.13;;;9.00;50.90;;;;;;5030786;28;20956;-70
2021/04/27 07:39:55;;;;;;;3.73;1.70;;;9.10;51.00;;;;;;5032377;28;20259;-70
2021/04/27 07:42:22;;;;;;;3.87;1.60;;;9.00;50.50;;;;;;5033896;28;20306;-68
2021/04/27 07:44:53;;;;;;;2.20;1.40;;;9.10;50.50;;;;;;5032501;28;20245;-73
2021/04/27 07:47:20;;;;;;;1.97;1.40;;;9.20;50.00;;;;;;5030616;28;20203;-69
2021/04/27 07:49:46;;;;;;;4.00;1.80;;;9.30;50.20;;;;;;5033997;28;20294;-70
2021/04/27 07:52:13;;;;;;;2.63;1.90;;;9.10;49.20;;;;;;5032719;28;20293;-67
2021/04/27 07:54:40;;;;;;;3.70;2.30;;;9.10;49.20;;;;;;5032277;28;20198;-68
2021/04/27 07:57:07;;;;;;;2.77;1.60;;;9.00;49.40;;;;;;5032716;28;20215;-69
2021/04/27 07:59:34;;;;;;;2.53;1.63;;;9.10;49.60;;;;;;5031864;28;20266;-69
2021/04/27 08:02:01;;;;;;;3.27;1.47;;;9.30;49.10;;;;;;5030235;28;20219;-69
2021/04/27 08:04:27;;;;;;;2.97;1.80;;;9.40;48.60;;;;;;5033890;28;20234;-70
2021/04/27 08:06:54;;;;;;;2.47;1.83;;;9.40;48.20;;;;;;5030588;28;20213;-70
2021/04/27 08:09:21;;;;;;;2.30;1.57;;;9.50;47.80;;;;;;5033500;28;20217;-69
2021/04/27 08:11:47;;;;;;;3.13;1.50;;;9.80;47.90;;;;;;5030070;28;20203;-68
2021/04/27 08:14:14;;;;;;;2.20;1.40;;;9.90;47.40;;;;;;5031402;28;20238;-69
2021/04/27 08:16:41;;;;;;;1.83;1.37;;;10.20;46.40;;;;;;5033017;28;20289;-69
2021/04/27 08:19:08;;;;;;;4.20;1.53;;;10.40;45.70;;;;;;5030030;28;20541;-69
2021/04/27 08:21:34;;;;;;;2.77;1.60;;;10.50;44.70;;;;;;5029733;28;21790;-69
2021/04/27 08:24:01;;;;;;;5.67;1.40;;;10.50;44.40;;;;;;5030960;28;20344;-69
2021/04/27 08:26:28;;;;;;;4.17;1.10;;;10.50;43.90;;;;;;5020328;28;20211;-70
2021/04/27 08:28:54;;;;;;;1.67;1.20;;;10.50;43.50;;;;;;5032707;28;20723;-68
2021/04/27 08:31:21;;;;;;;2.83;1.20;;;10.60;43.10;;;;;;5032920;28;20683;-70
2021/04/27 08:33:47;;;;;;;1.70;1.20;;;10.60;42.70;;;;;;5032087;28;20633;-68
2021/04/27 08:36:15;;;;;;;1.70;1.10;;;10.80;43.20;;;;;;5031490;28;20218;-69
2021/04/27 08:38:41;;;;;;;2.20;1.30;;;11.00;43.00;;;;;;5029060;28;20327;-69
2021/04/27 08:41:08;;;;;;;1.47;1.23;;;11.20;43.40;;;;;;5028072;28;20223;-69
2021/04/27 08:43:34;;;;;;;1.87;1.33;;;11.40;44.20;;;;;;5028321;28;20242;-69
2021/04/27 08:46:01;;;;;;;2.53;1.40;;;11.40;43.40;;;;;;5029960;28;20207;-69
2021/04/27 08:48:28;;;;;;;2.00;1.10;;;11.40;43.20;;;;;;5029978;28;20627;-70
2021/04/27 08:50:55;;;;;;;3.03;1.30;;;11.60;43.10;;;;;;5031717;28;20245;-70
2021/04/27 08:53:22;;;;;;;4.07;1.30;;;11.70;42.80;;;;;;5029309;28;20627;-69
2021/04/27 08:55:49;;;;;;;2.77;1.13;;;11.80;42.60;;;;;;5029324;28;20199;-70
2021/04/27 08:58:16;;;;;;;2.73;1.27;;;11.70;42.10;;;;;;5031954;28;20695;-68
2021/04/27 09:00:45;;;;;;;1.30;1.20;;;11.70;42.10;;;;;;5029451;28;20308;-69
2021/04/27 09:03:11;;;;;;;3.70;1.40;;;11.60;41.50;;;;;;5031466;28;20214;-70
2021/04/27 09:05:41;;;;;;;2.27;1.20;;;11.40;41.20;;;;;;5031579;28;20614;-71
2021/04/27 09:08:10;;;;;;;1.57;1.43;;;11.20;41.50;;;;;;5029752;28;20271;-72
2021/04/27 09:10:43;;;;;;;1.43;1.17;;;11.10;42.10;;;;;;5029124;28;20214;-71
2021/04/27 09:13:12;;;;;;;1.50;1.30;;;11.40;42.60;;;;;;5029746;28;20209;-71
2021/04/27 09:15:48;;;;;;;2.63;1.07;;;11.60;41.80;;;;;;5028917;28;20644;-72
2021/04/27 09:18:29;;;;;;;1.40;1.30;;;11.90;42.30;;;;;;5029282;28;20256;-71
2021/04/27 09:20:59;;;;;;;3.37;1.10;;;12.40;42.70;;;;;;5029349;28;20260;-70
2021/04/27 09:23:25;;;;;;;1.73;1.07;;;12.80;40.90;;;;;;5026534;28;20290;-71
2021/04/27 09:26:14;;;;;;;2.53;1.20;;;13.00;40.80;;;;;;5028442;28;20289;-71
2021/04/27 09:28:42;;;;;;;1.43;1.30;;;13.10;40.30;;;;;;5031178;28;20203;-70
2021/04/27 09:31:23;;;;;;;2.40;1.30;;;13.10;40.10;;;;;;5024841;28;20238;-71
2021/04/27 09:33:51;;;;;;;1.40;1.30;;;13.00;39.90;;;;;;5029048;28;20293;-70
2021/04/27 09:36:19;;;;;;;1.77;1.20;;;12.90;40.10;;;;;;5032177;28;20620;-70
2021/04/27 09:38:46;;;;;;;1.57;0.93;;;12.80;40.00;;;;;;5031344;28;20211;-71
2021/04/27 09:41:13;;;;;;;2.87;1.33;;;12.60;39.80;;;;;;5028241;28;20311;-71
2021/04/27 09:43:44;;;;;;;1.97;1.60;;;12.40;39.70;;;;;;5032049;28;20233;-72
2021/04/27 09:46:15;;;;;;;3.00;1.60;;;12.30;40.40;;;;;;5031943;28;20285;-69
2021/04/27 09:48:44;;;;;;;2.23;1.40;;;12.40;41.00;;;;;;5031741;28;20199;-70
2021/04/27 09:51:22;;;;;;;4.20;3.10;;;12.50;41.30;;;;;;5027282;28;20268;-70
2021/04/27 09:53:52;;;;;;;3.33;1.97;;;12.70;40.90;;;;;;5031518;28;20229;-71
2021/04/27 09:56:33;;;;;;;2.10;1.87;;;12.90;40.80;;;;;;5029777;28;20233;-72
2021/04/27 09:59:04;;;;;;;3.47;1.93;;;13.10;40.40;;;;;;5029044;28;20230;-71
2021/04/27 10:01:31;;;;;;;3.17;1.50;;;13.20;40.40;;;;;;5029527;28;20234;-71
2021/04/27 10:03:58;;;;;;;1.60;1.10;;;13.20;40.40;;;;;;5031753;28;20659;-70
2021/04/27 10:06:25;;;;;;;2.37;1.40;;;13.10;40.20;;;;;;5029094;28;20226;-70
2021/04/27 10:08:51;;;;;;;1.60;1.13;;;13.00;40.20;;;;;;5032254;28;20363;-72
2021/04/27 10:11:19;;;;;;;2.00;1.30;;;13.10;40.70;;;;;;5031872;28;20203;-72
2021/04/27 10:13:46;;;;;;;1.63;0.93;;;13.10;39.90;;;;;;5031287;28;20280;-71
2021/04/27 10:16:14;;;;;;;1.20;1.07;;;12.90;38.90;;;;;;5029177;28;20249;-71
2021/04/27 10:18:40;;;;;;;2.97;1.37;;;12.80;39.30;;;;;;5030163;28;20649;-70
2021/04/27 10:21:08;;;;;;;1.27;1.17;;;12.70;39.30;;;;;;5033857;28;20242;-69
2021/04/27 10:23:35;;;;;;;2.37;1.27;;;12.60;39.90;;;;;;5031993;28;20216;-70
2021/04/27 10:26:02;;;;;;;2.03;1.37;;;12.40;39.70;;;;;;5034034;28;20713;-70
2021/04/27 10:28:57;;;;;;;1.43;1.10;;;12.30;40.00;;;;;;5029366;28;20682;-71
2021/04/27 10:31:25;;;;;;;1.20;1.10;;;12.10;40.40;;;;;;5031370;28;20662;-70
2021/04/27 10:33:59;;;;;;;2.13;1.10;;;12.10;40.80;;;;;;5032499;28;20210;-70
2021/04/27 10:36:26;;;;;;;2.53;1.40;;;12.10;40.80;;;;;;5032066;28;20204;-70
2021/04/27 10:38:56;;;;;;;2.50;1.30;;;12.30;41.30;;;;;;5032362;28;20214;-70
2021/04/27 10:41:27;;;;;;;2.20;1.30;;;12.50;40.80;;;;;;5033188;28;20286;-68
2021/04/27 10:43:57;;;;;;;4.47;1.13;;;12.70;40.00;;;;;;5033785;28;20202;-69
2021/04/27 10:46:55;;;;;;;3.40;1.37;;;12.80;40.00;;;;;;5033600;28;20554;-70
2021/04/27 10:49:33;;;;;;;1.23;1.13;;;13.10;40.30;;;;;;5026940;28;20286;-71
2021/04/27 10:52:02;;;;;;;2.57;1.30;;;13.50;41.10;;;;;;5031722;28;20234;-69
2021/04/27 10:54:30;;;;;;;1.70;1.60;;;14.10;40.30;;;;;;5028133;28;20241;-69
2021/04/27 10:57:14;;;;;;;1.63;1.53;;;14.60;39.20;;;;;;5033576;28;20238;-68
2021/04/27 11:00:02;;;;;;;1.30;1.20;;;14.90;39.00;;;;;;5027570;28;20215;-71
2021/04/27 11:02:30;;;;;;;1.47;1.20;;;15.40;38.20;;;;;;5030965;28;20307;-72
2021/04/27 11:05:01;;;;;;;2.90;1.80;;;15.30;37.00;;;;;;5033423;28;20670;-72
2021/04/27 11:07:32;;;;;;;4.57;1.20;;;15.40;36.80;;;;;;5032960;28;20217;-71
2021/04/27 11:10:31;;;;;;;7.10;1.27;;;15.50;36.70;;;;;;5033754;28;20708;-70
2021/04/27 11:13:00;;;;;;;1.80;1.23;;;15.50;36.30;;;;;;5032527;28;20216;-71
2021/04/27 11:15:31;;;;;;;5.10;1.30;;;15.50;35.60;;;;;;5033142;28;20293;-72
2021/04/27 11:18:06;;;;;;;2.57;1.30;;;15.50;35.90;;;;;;5033607;28;20565;-73
2021/04/27 11:21:11;;;;;;;1.97;1.23;;;15.60;36.10;;;;;;5030334;28;20234;-73
2021/04/27 11:23:49;;;;;;;1.70;0.93;;;15.50;36.00;;;;;;5032413;28;20206;-73
2021/04/27 11:26:41;;;;;;;2.63;1.00;;;15.30;35.60;;;;;;5031881;28;20281;-72
2021/04/27 11:29:14;;;;;;;1.17;1.00;;;15.00;35.90;;;;;;5028231;28;20227;-71
2021/04/27 11:32:07;;;;;;;2.77;1.40;;;14.80;35.80;;;;;;5031318;28;20273;-72
2021/04/27 11:34:52;;;;;;;2.90;0.97;;;14.80;36.70;;;;;;5027396;28;20202;-71
2021/04/27 11:37:21;;;;;;;2.60;1.30;;;14.60;36.70;;;;;;5029189;28;20286;-71
2021/04/27 11:39:47;;;;;;;2.00;1.43;;;14.40;36.90;;;;;;5031642;28;20214;-70
2021/04/27 11:42:21;;;;;;;1.27;1.17;;;14.20;37.40;;;;;;5026101;28;20314;-70
2021/04/27 11:44:54;;;;;;;1.53;1.37;;;14.00;37.50;;;;;;5031534;28;20719;-71
2021/04/27 11:47:21;;;;;;;2.27;1.20;;;14.00;37.70;;;;;;5031116;28;20230;-71
2021/04/27 11:49:50;;;;;;;1.83;1.20;;;13.80;37.50;;;;;;5030198;28;21692;-70
2021/04/27 11:53:02;;;;;;;1.30;1.20;;;13.70;38.40;;;;;;5031300;28;20222;-72
2021/04/27 11:55:35;;;;;;;2.07;1.30;;;13.60;37.70;;;;;;5029452;28;20215;-71
2021/04/27 11:58:04;;;;;;;1.10;1.00;;;13.50;37.40;;;;;;5034448;28;20202;-70
2021/04/27 12:00:39;;;;;;;1.07;1.00;;;13.40;37.20;;;;;;5031685;28;20238;-71
2021/04/27 12:03:27;;;;;;;1.10;0.90;;;13.40;37.80;;;;;;5033529;28;20603;-71
2021/04/27 12:05:55;;;;;;;2.70;1.10;;;13.50;38.00;;;;;;5032584;28;20199;-71
2021/04/27 12:08:28;;;;;;;2.07;1.37;;;13.70;37.40;;;;;;5032942;28;20823;-70
2021/04/27 12:11:26;;;;;;;1.43;1.27;;;13.60;37.20;;;;;;5032668;28;20202;-70
2021/04/27 12:13:54;;;;;;;1.43;1.10;;;13.70;37.80;;;;;;4988611;28;20220;-69
2021/04/27 12:16:23;;;;;;;1.50;1.17;;;13.70;37.80;;;;;;5020887;28;20309;-70
2021/04/27 12:19:02;;;;;;;2.03;1.10;;;13.80;37.90;;;;;;5029471;28;20217;-70
2021/04/27 12:21:38;;;;;;;2.70;1.13;;;14.10;38.10;;;;;;5030030;28;20292;-68
2021/04/27 12:24:16;;;;;;;3.47;1.30;;;14.40;37.50;;;;;;5031125;28;20755;-69
2021/04/27 12:26:46;;;;;;;1.77;1.40;;;14.40;36.90;;;;;;5030378;28;20211;-68
2021/04/27 12:29:14;;;;;;;2.03;1.53;;;14.30;37.00;;;;;;5030392;28;20207;-69
2021/04/27 12:31:41;;;;;;;1.93;1.40;;;14.40;37.50;;;;;;5027499;28;20245;-69
2021/04/27 12:34:14;;;;;;;2.17;1.40;;;14.60;37.00;;;;;;5030971;28;20211;-68
2021/04/27 12:36:42;;;;;;;1.53;1.43;;;14.70;36.60;;;;;;5030392;28;20205;-67
2021/04/27 12:39:24;;;;;;;2.20;1.30;;;14.70;36.30;;;;;;5028465;28;20268;-68
2021/04/27 12:41:52;;;;;;;1.73;1.53;;;14.60;36.10;;;;;;5027454;28;20241;-68
2021/04/27 12:44:30;;;;;;;1.53;1.30;;;14.40;36.50;;;;;;5030457;28;20552;-67
2021/04/27 12:46:58;;;;;;;2.33;1.33;;;14.40;36.40;;;;;;5028798;28;20290;-68
2021/04/27 12:49:27;;;;;;;1.70;1.20;;;14.40;36.50;;;;;;5028771;28;20813;-69
2021/04/27 12:51:58;;;;;;;2.93;0.93;;;14.60;36.10;;;;;;5029956;28;20206;-69
2021/04/27 12:54:29;;;;;;;2.67;1.40;;;14.70;36.00;;;;;;5026444;28;20293;-68
2021/04/27 12:57:11;;;;;;;6.10;2.07;;;14.60;35.90;;;;;;5029674;28;20198;-68